Olympic Champion — SYWD — position and weather

sailwx.info

Track history (hours):
 
Tides and Currents Weather Stations Pressure Air Temp Water Temp Dewpoint Dewpoint Depression Visibility Wind Speed Wind Dir Waves Ship Positions

Olympic Champion

Last reported at 2015-May-04 08:09 UTC. Time now 2015-May-04 16:04 UTC.
Position N 39°17' E 020°15'.

Length 204 m; draft 6.4 m.

Type: Passenger vessel. MMSI: 237280000.

Date/timePositionNaut miles runAvg speedWind from/ knotsBaromVisibWave heightAir tempDewpointWater temp
2015-May-04 08:09N 39°17' E 020°15'1316.7
2015-May-04 07:24N 39°30' E 020°15'3 2.7
2015-May-04 06:28N 39°30' E 020°12'2123.7
2015-May-04 05:34N 39°48' E 019°56'2827.7
2015-May-04 04:34N 40°03' E 019°26'2827.6
2015-May-04 03:34N 40°18' E 018°56'2827.5
2015-May-04 02:33N 40°34' E 018°26'2927.9
2015-May-04 01:32N 40°52' E 017°57'84 3.2
2015-May-02 23:18N 40°07' E 019°30'2128.1
2015-May-02 22:33N 39°53' E 019°50'2524.7
2015-May-02 21:33N 39°32' E 020°06'7 7.4
2015-May-02 20:33N 39°30' E 020°15'4 3.6
2015-May-02 19:32N 39°30' E 020°11'11 0.9
2015-May-02 07:33N 39°19' E 020°15'1010.4
2015-May-02 06:33N 39°30' E 020°15'1110.5
2015-May-02 05:34N 39°35' E 020°04'2625.8
2015-May-02 04:34N 39°55' E 019°42'2827.7
2015-May-02 03:33N 40°10' E 019°12'3127.6
2015-May-02 02:27N 40°27' E 018°38'46 1.7
2015-Apr-30 22:34N 40°05' E 019°32'2827.7
2015-Apr-30 21:34N 39°46' E 019°58'2120.8
2015-Apr-30 20:33N 39°30' E 020°15'0 0.0
2015-Apr-30 19:33N 39°30' E 020°15'11 0.8
2015-Apr-30 07:05N 39°19' E 020°15'1116.0
2015-Apr-30 06:25N 39°30' E 020°15'3 2.5
2015-Apr-30 05:23N 39°30' E 020°12'1923.0
2015-Apr-30 04:34N 39°46' E 019°58'2726.9
2015-Apr-30 03:34N 40°02' E 019°29'7 0.2
2015-Apr-28 22:33N 40°08' E 019°29'2827.6
2015-Apr-28 21:33N 39°49' E 019°55'2522.4
2015-Apr-28 20:27N 39°30' E 020°15'1 0.6
2015-Apr-28 19:33N 39°30' E 020°15'1212.2
2015-Apr-28 18:34N 39°18' E 020°15'1 0.0
2015-Apr-27 10:31N 39°17' E 020°16'1313.5
2015-Apr-27 09:33N 39°30' E 020°15'4 4.3
2015-Apr-27 08:34N 39°30' E 020°10'2222.3
2015-Apr-27 07:33N 39°49' E 019°54'2727.3
2015-Apr-27 06:33N 40°04' E 019°25'2727.4
2015-Apr-27 05:34N 40°19' E 018°55'2727.2
2015-Apr-27 04:34N 40°35' E 018°25'2727.5
2015-Apr-27 03:33N 40°52' E 017°57'2727.4
2015-Apr-27 02:33N 41°09' E 017°29'99 3.9
2015-Apr-26 01:25N 40°16' E 019°18'2427.6
2015-Apr-26 00:33N 39°60' E 019°41'2626.3
2015-Apr-25 23:33N 39°38' E 020°01'1414.2
2015-Apr-25 22:34N 39°30' E 020°15'3 2.9
2015-Apr-25 21:29N 39°30' E 020°11'13 1.2
2015-Apr-25 10:32N 39°17' E 020°15'1212.4
2015-Apr-25 09:33N 39°30' E 020°15'4 4.4
2015-Apr-25 08:34N 39°30' E 020°10'2424.2
2015-Apr-25 07:33N 39°50' E 019°52'2625.8
2015-Apr-25 06:34N 40°04' E 019°24'1414.2
2015-Apr-25 05:33N 40°12' E 019°08'  
Track history (hours):
 
Tides and Currents Weather Stations Pressure Air Temp Water Temp Dewpoint Dewpoint Depression Visibility Wind Speed Wind Dir Waves Ship Positions

Olympic Champion

Last reported at 2015-May-04 08:09 UTC. Time now 2015-May-04 16:04 UTC.
Position N 39°17' E 020°15'.

Length 204 m; draft 6.4 m.

Type: Passenger vessel. MMSI: 237280000.

Date/timePositionNaut miles runAvg speedWind from/ knotsBaromVisibWave heightAir tempDewpointWater temp
2015-May-04 08:09N 39°17' E 020°15'1316.7
2015-May-04 07:24N 39°30' E 020°15'3 2.7
2015-May-04 06:28N 39°30' E 020°12'2123.7
2015-May-04 05:34N 39°48' E 019°56'2827.7
2015-May-04 04:34N 40°03' E 019°26'2827.6
2015-May-04 03:34N 40°18' E 018°56'2827.5
2015-May-04 02:33N 40°34' E 018°26'2927.9
2015-May-04 01:32N 40°52' E 017°57'84 3.2
2015-May-02 23:18N 40°07' E 019°30'2128.1
2015-May-02 22:33N 39°53' E 019°50'2524.7
2015-May-02 21:33N 39°32' E 020°06'7 7.4
2015-May-02 20:33N 39°30' E 020°15'4 3.6
2015-May-02 19:32N 39°30' E 020°11'11 0.9
2015-May-02 07:33N 39°19' E 020°15'1010.4
2015-May-02 06:33N 39°30' E 020°15'1110.5
2015-May-02 05:34N 39°35' E 020°04'2625.8
2015-May-02 04:34N 39°55' E 019°42'2827.7
2015-May-02 03:33N 40°10' E 019°12'3127.6
2015-May-02 02:27N 40°27' E 018°38'46 1.7
2015-Apr-30 22:34N 40°05' E 019°32'2827.7
2015-Apr-30 21:34N 39°46' E 019°58'2120.8
2015-Apr-30 20:33N 39°30' E 020°15'0 0.0
2015-Apr-30 19:33N 39°30' E 020°15'11 0.8
2015-Apr-30 07:05N 39°19' E 020°15'1116.0
2015-Apr-30 06:25N 39°30' E 020°15'3 2.5
2015-Apr-30 05:23N 39°30' E 020°12'1923.0
2015-Apr-30 04:34N 39°46' E 019°58'2726.9
2015-Apr-30 03:34N 40°02' E 019°29'7 0.2
2015-Apr-28 22:33N 40°08' E 019°29'2827.6
2015-Apr-28 21:33N 39°49' E 019°55'2522.4
2015-Apr-28 20:27N 39°30' E 020°15'1 0.6
2015-Apr-28 19:33N 39°30' E 020°15'1212.2
2015-Apr-28 18:34N 39°18' E 020°15'1 0.0
2015-Apr-27 10:31N 39°17' E 020°16'1313.5
2015-Apr-27 09:33N 39°30' E 020°15'4 4.3
2015-Apr-27 08:34N 39°30' E 020°10'2222.3
2015-Apr-27 07:33N 39°49' E 019°54'2727.3
2015-Apr-27 06:33N 40°04' E 019°25'2727.4
2015-Apr-27 05:34N 40°19' E 018°55'2727.2
2015-Apr-27 04:34N 40°35' E 018°25'2727.5
2015-Apr-27 03:33N 40°52' E 017°57'2727.4
2015-Apr-27 02:33N 41°09' E 017°29'99 3.9
2015-Apr-26 01:25N 40°16' E 019°18'2427.6
2015-Apr-26 00:33N 39°60' E 019°41'2626.3
2015-Apr-25 23:33N 39°38' E 020°01'1414.2
2015-Apr-25 22:34N 39°30' E 020°15'3 2.9
2015-Apr-25 21:29N 39°30' E 020°11'13 1.2
2015-Apr-25 10:32N 39°17' E 020°15'1212.4
2015-Apr-25 09:33N 39°30' E 020°15'4 4.4
2015-Apr-25 08:34N 39°30' E 020°10'2424.2
2015-Apr-25 07:33N 39°50' E 019°52'2625.8
2015-Apr-25 06:34N 40°04' E 019°24'1414.2
2015-Apr-25 05:33N 40°12' E 019°08'  

Dump ship's entire track history